Time;durP1;ratioP1;P1;durP2;ratioP2;P2;SDS_P1;SDS_P2;PMS_P1;PMS_P2;Temp;Humidity;BMP_temperature;BMP_pressure;BME280_temperature;BME280_humidity;BME280_pressure;Samples;Min_cycle;Max_cycle;Signal;HPM_P1;HPM_P2
2024/01/26 00:02:26;;;;;;;4.40;1.08;;;;;;;3.47;100.00;99295.16;4500899;31;20147;-75
2024/01/26 00:04:55;;;;;;;2.87;1.10;;;;;;;3.43;100.00;99293.63;4500985;31;20156;-75
2024/01/26 00:07:24;;;;;;;5.68;1.52;;;;;;;3.38;100.00;99292.09;4500958;31;20096;-75
2024/01/26 00:09:51;;;;;;;4.57;1.23;;;;;;;3.45;100.00;99282.28;4500821;31;20502;-75
2024/01/26 00:12:18;;;;;;;7.90;1.75;;;;;;;3.45;100.00;99303.00;4500668;31;20100;-75
2024/01/26 00:14:46;;;;;;;6.82;1.50;;;;;;;3.43;100.00;99284.09;4500740;31;20156;-75
2024/01/26 00:17:13;;;;;;;3.55;1.00;;;;;;;3.48;100.00;99291.63;4500234;31;20092;-75
2024/01/26 00:19:41;;;;;;;6.80;1.73;;;;;;;3.45;100.00;99294.38;4487933;31;20172;-75
2024/01/26 00:22:08;;;;;;;5.18;0.93;;;;;;;3.48;100.00;99286.44;4485099;31;20084;-75
2024/01/26 00:24:36;;;;;;;5.30;1.25;;;;;;;3.48;100.00;99286.44;4484847;31;20104;-75
2024/01/26 00:27:03;;;;;;;11.40;1.23;;;;;;;3.49;100.00;99285.53;4484992;31;20123;-75
2024/01/26 00:29:35;;;;;;;7.35;2.03;;;;;;;3.45;100.00;99291.78;4486273;31;20093;-75
2024/01/26 00:32:03;;;;;;;2.78;1.40;;;;;;;3.44;100.00;99290.97;4500544;31;20089;-75
2024/01/26 00:34:31;;;;;;;4.10;1.30;;;;;;;3.44;100.00;99290.97;4500723;31;20392;-75
2024/01/26 00:37:03;;;;;;;8.88;1.87;;;;;;;3.43;100.00;99310.00;4500482;31;20606;-75
2024/01/26 00:39:30;;;;;;;9.35;2.25;;;;;;;3.42;100.00;99312.66;4500633;31;20119;-75
2024/01/26 00:41:58;;;;;;;8.38;1.73;;;;;;;3.42;100.00;99312.66;4500380;31;20093;-75
2024/01/26 00:44:26;;;;;;;7.87;1.50;;;;;;;3.41;100.00;99321.34;4500257;31;20176;-75
2024/01/26 00:46:53;;;;;;;6.50;1.40;;;;;;;3.40;100.00;99310.16;4500388;31;20191;-75
2024/01/26 00:49:20;;;;;;;6.90;1.48;;;;;;;3.34;100.00;99332.00;4499053;31;20114;-75
2024/01/26 00:52:00;;;;;;;4.80;1.20;;;;;;;3.25;100.00;99327.28;4500594;31;20136;-75
2024/01/26 00:54:27;;;;;;;13.90;2.30;;;;;;;3.17;100.00;99338.03;4500306;31;20096;-75
2024/01/26 00:56:54;;;;;;;5.80;1.42;;;;;;;3.20;100.00;99344.81;4500403;31;20458;-75
2024/01/26 00:59:22;;;;;;;5.32;1.70;;;;;;;3.17;100.00;99343.22;4500390;31;20092;-75
2024/01/26 01:01:49;;;;;;;6.43;1.98;;;;;;;3.18;100.00;99336.31;4500217;31;20147;-75
2024/01/26 01:04:16;;;;;;;6.07;1.70;;;;;;;3.18;100.00;99351.84;4500310;31;20097;-75
2024/01/26 01:06:44;;;;;;;4.75;1.52;;;;;;;3.18;100.00;99352.66;4500396;31;20088;-75
2024/01/26 01:09:11;;;;;;;7.18;1.55;;;;;;;3.12;100.00;99352.09;4500287;31;20088;-75
2024/01/26 01:11:38;;;;;;;4.65;1.92;;;;;;;3.09;100.00;99347.09;4500314;31;20457;-75
2024/01/26 01:14:06;;;;;;;6.40;1.70;;;;;;;3.01;100.00;99339.69;4500112;31;20148;-75
2024/01/26 01:16:34;;;;;;;5.97;1.90;;;;;;;3.01;100.00;99345.75;4500276;31;20176;-75
2024/01/26 01:19:02;;;;;;;8.82;1.65;;;;;;;3.00;100.00;99338.87;4491910;31;20160;-75
2024/01/26 01:21:30;;;;;;;2.35;1.27;;;;;;;2.93;100.00;99337.50;4484427;31;20131;-75
2024/01/26 01:23:57;;;;;;;8.52;1.77;;;;;;;2.79;100.00;99325.22;4484365;31;20100;-75
2024/01/26 01:26:24;;;;;;;5.75;1.40;;;;;;;2.72;100.00;99328.19;4484602;31;20187;-75
2024/01/26 01:28:52;;;;;;;5.68;1.20;;;;;;;2.59;100.00;99328.78;4484180;32;20650;-75
2024/01/26 01:31:20;;;;;;;7.00;1.60;;;;;;;2.52;100.00;99327.38;4496842;31;20096;-75
2024/01/26 01:33:47;;;;;;;10.52;1.95;;;;;;;2.49;100.00;99333.53;4500111;31;20125;-75
2024/01/26 01:36:15;;;;;;;3.58;1.65;;;;;;;2.40;100.00;99333.13;4499836;31;20092;-75
2024/01/26 01:38:43;;;;;;;8.57;1.65;;;;;;;2.33;100.00;99349.84;4499876;31;20104;-75
2024/01/26 01:41:10;;;;;;;4.05;1.50;;;;;;;2.30;100.00;99356.84;4499943;31;20608;-75
2024/01/26 01:43:38;;;;;;;3.50;1.55;;;;;;;2.37;100.00;99361.72;4499923;31;20104;-75
2024/01/26 01:46:06;;;;;;;7.62;2.20;;;;;;;2.30;100.00;99361.13;4499833;31;20438;-75
2024/01/26 01:48:33;;;;;;;6.07;1.67;;;;;;;2.36;100.00;99375.53;4499943;31;20545;-75
2024/01/26 01:51:01;;;;;;;7.18;1.87;;;;;;;2.24;100.00;99364.88;4499651;31;20402;-75
2024/01/26 01:53:30;;;;;;;5.15;1.52;;;;;;;2.19;100.00;99371.16;4500056;31;20118;-75
2024/01/26 01:55:59;;;;;;;7.55;1.62;;;;;;;2.24;100.00;99370.03;4498362;31;20099;-75
2024/01/26 01:58:28;;;;;;;6.07;1.65;;;;;;;2.23;100.00;99362.34;4499531;31;20088;-75
2024/01/26 02:00:56;;;;;;;7.00;1.80;;;;;;;2.14;100.00;99361.00;4498296;31;20446;-75
2024/01/26 02:03:23;;;;;;;4.43;1.58;;;;;;;2.16;100.00;99361.78;4499397;31;20165;-75
2024/01/26 02:05:51;;;;;;;6.72;1.70;;;;;;;2.03;100.00;99358.91;4499806;31;20480;-75
2024/01/26 02:08:20;;;;;;;5.47;1.95;;;;;;;1.94;100.00;99356.75;4499474;31;20084;-75
2024/01/26 02:10:47;;;;;;;2.80;1.40;;;;;;;1.95;100.00;99355.81;4499393;31;20088;-75
2024/01/26 02:13:14;;;;;;;3.75;1.50;;;;;;;1.91;100.00;99349.97;4499507;31;20084;-75
2024/01/26 02:15:41;;;;;;;4.30;1.45;;;;;;;1.91;100.00;99357.72;4499309;31;20117;-75
2024/01/26 02:18:09;;;;;;;3.65;2.00;;;;;;;1.80;100.00;99352.16;4496784;31;20108;-75
2024/01/26 02:20:36;;;;;;;7.87;1.80;;;;;;;1.70;100.00;99353.50;4483542;31;20112;-75
2024/01/26 02:23:23;;;;;;;6.12;1.42;;;;;;;1.70;100.00;99356.91;4483476;31;20545;-75
2024/01/26 02:25:50;;;;;;;;;;;;;;;1.64;100.00;99359.75;4483958;32;20084;-75
2024/01/26 02:28:18;;;;;;;5.93;1.48;;;;;;;1.65;100.00;99361.44;4482152;32;19964;-75
2024/01/26 02:30:46;;;;;;;6.00;1.98;;;;;;;1.62;100.00;99363.28;4492568;31;20112;-75
2024/01/26 02:33:14;;;;;;;3.28;1.73;;;;;;;1.53;100.00;99361.94;4499388;31;20104;-75
2024/01/26 02:35:41;;;;;;;5.03;1.62;;;;;;;1.52;100.00;99366.28;4498962;31;20122;-75
2024/01/26 02:38:09;;;;;;;5.10;1.40;;;;;;;1.44;100.00;99367.50;4499323;31;20433;-75
2024/01/26 02:40:36;;;;;;;4.97;2.10;;;;;;;1.33;100.00;99366.22;4500001;31;20113;-75
2024/01/26 02:43:04;;;;;;;7.75;1.80;;;;;;;1.30;100.00;99368.91;4501602;31;20545;-75
2024/01/26 02:45:32;;;;;;;10.23;2.20;;;;;;;1.25;100.00;99365.69;4501372;31;20096;-75
2024/01/26 02:48:00;;;;;;;6.62;1.90;;;;;;;1.22;100.00;99366.66;4501406;31;20159;-75
2024/01/26 02:50:27;;;;;;;4.90;1.60;;;;;;;1.16;100.00;99371.25;4501335;31;20118;-75
2024/01/26 02:52:55;;;;;;;5.93;1.60;;;;;;;1.15;100.00;99361.81;4501089;31;20152;-75
2024/01/26 02:55:23;;;;;;;5.20;1.83;;;;;;;1.01;100.00;99362.38;4501498;31;20100;-75
2024/01/26 02:57:51;;;;;;;6.62;1.67;;;;;;;1.05;100.00;99366.50;4501333;31;20132;-75
2024/01/26 03:00:19;;;;;;;9.88;1.95;;;;;;;1.06;100.00;99368.22;4501261;31;20100;-75
2024/01/26 03:02:46;;;;;;;4.60;1.40;;;;;;;1.12;100.00;99360.22;4501529;31;20119;-75
2024/01/26 03:05:14;;;;;;;3.83;1.62;;;;;;;1.08;100.00;99366.38;4501140;31;20092;-75
2024/01/26 03:07:42;;;;;;;4.70;1.87;;;;;;;1.10;100.00;99366.34;4501359;31;20108;-75
2024/01/26 03:10:09;;;;;;;5.37;1.42;;;;;;;1.07;100.00;99369.88;4501111;31;20390;-75
2024/01/26 03:12:37;;;;;;;9.25;2.05;;;;;;;1.10;100.00;99369.75;4501292;31;20115;-75
2024/01/26 03:15:04;;;;;;;4.93;1.80;;;;;;;1.13;100.00;99377.34;4501258;31;20152;-75
2024/01/26 03:17:32;;;;;;;3.90;1.98;;;;;;;1.21;100.00;99377.03;4501222;31;20092;-75
2024/01/26 03:20:00;;;;;;;6.97;1.75;;;;;;;1.21;100.00;99366.72;4486437;31;20119;-75
2024/01/26 03:22:28;;;;;;;12.27;2.10;;;;;;;1.28;100.00;99368.16;4485438;31;20496;-75
2024/01/26 03:24:55;;;;;;;6.80;1.85;;;;;;;1.26;100.00;99372.53;4485576;32;20139;-75
2024/01/26 03:27:24;;;;;;;7.45;1.90;;;;;;;1.29;100.00;99368.97;4485342;31;20114;-75
2024/01/26 03:29:52;;;;;;;4.85;2.25;;;;;;;1.21;100.00;99369.28;4488348;31;20122;-75
2024/01/26 03:32:20;;;;;;;10.65;2.22;;;;;;;1.26;100.00;99371.69;4501130;31;20441;-75
2024/01/26 03:34:48;;;;;;;6.40;1.92;;;;;;;1.26;100.00;99371.69;4500848;31;20156;-75
2024/01/26 03:37:15;;;;;;;4.35;1.42;;;;;;;1.22;100.00;99364.06;4499747;31;20087;-75
2024/01/26 03:39:42;;;;;;;10.93;3.60;;;;;;;1.19;100.00;99373.69;4501185;31;20175;-75
2024/01/26 03:42:11;;;;;;;9.48;1.83;;;;;;;1.19;100.00;99366.78;4500842;31;20156;-75
2024/01/26 03:44:41;;;;;;;5.87;1.65;;;;;;;1.19;100.00;99365.94;4500917;31;20468;-75
2024/01/26 03:47:09;;;;;;;6.93;1.50;;;;;;;1.26;100.00;99372.53;4500938;31;20096;-75
2024/01/26 03:49:41;;;;;;;8.07;1.87;;;;;;;1.28;100.00;99369.91;4500868;31;20100;-75
2024/01/26 03:52:08;;;;;;;7.07;1.95;;;;;;;1.27;100.00;99381.94;4499866;31;20093;-75
2024/01/26 03:54:36;;;;;;;3.25;1.42;;;;;;;1.21;100.00;99382.19;4500784;31;20088;-75
2024/01/26 03:57:05;;;;;;;4.97;2.20;;;;;;;1.21;100.00;99377.91;4500674;31;20100;-75
2024/01/26 03:59:32;;;;;;;5.37;1.75;;;;;;;1.15;100.00;99385.88;4500897;31;20104;-75
2024/01/26 04:02:00;;;;;;;9.82;1.85;;;;;;;1.08;100.00;99388.78;4500651;31;20101;-75
2024/01/26 04:04:28;;;;;;;10.40;1.55;;;;;;;1.06;100.00;99391.44;4500843;31;20176;-75
2024/01/26 04:06:55;;;;;;;7.12;1.77;;;;;;;1.15;100.00;99390.19;4500704;31;20431;-75
2024/01/26 04:09:23;;;;;;;4.78;1.40;;;;;;;1.23;100.00;99391.56;4499835;31;20092;-75
2024/01/26 04:11:51;;;;;;;4.93;1.73;;;;;;;1.24;100.00;99401.00;4500778;31;20089;-75
2024/01/26 04:14:19;;;;;;;4.93;1.58;;;;;;;1.30;100.00;99401.63;4500640;31;20122;-75
2024/01/26 04:16:48;;;;;;;5.30;1.50;;;;;;;1.29;100.00;99412.84;4500673;31;20110;-75
2024/01/26 04:19:16;;;;;;;8.52;1.87;;;;;;;1.29;100.00;99412.84;4490707;31;20161;-75
2024/01/26 04:21:44;;;;;;;8.63;1.67;;;;;;;1.15;100.00;99410.84;4485224;31;20085;-75
2024/01/26 04:24:11;;;;;;;3.33;1.80;;;;;;;1.13;100.00;99417.81;4484894;31;20096;-75
2024/01/26 04:26:41;;;;;;;6.32;1.77;;;;;;;1.10;100.00;99420.50;4484759;31;20145;-75
2024/01/26 04:29:08;;;;;;;7.40;1.80;;;;;;;1.02;100.00;99431.97;4484875;31;20253;-75
2024/01/26 04:31:42;;;;;;;7.18;1.45;;;;;;;1.05;100.00;99433.59;4499067;31;20103;-75
2024/01/26 04:34:13;;;;;;;7.53;1.80;;;;;;;1.00;100.00;99438.09;4500729;31;20105;-75
2024/01/26 04:36:51;;;;;;;4.30;2.03;;;;;;;0.96;100.00;99447.69;4500386;31;20114;-75
2024/01/26 04:39:18;;;;;;;9.20;2.20;;;;;;;0.92;100.00;99453.03;4500754;31;20079;-75
2024/01/26 04:41:45;;;;;;;8.32;1.73;;;;;;;0.84;100.00;99456.75;4500581;31;20509;-75
2024/01/26 04:44:12;;;;;;;11.73;1.85;;;;;;;0.79;100.00;99453.50;4500505;31;20122;-75
2024/01/26 04:46:41;;;;;;;7.32;2.10;;;;;;;0.82;100.00;99458.53;4500348;31;20212;-75
2024/01/26 04:49:08;;;;;;;4.30;1.30;;;;;;;0.82;100.00;99458.53;4500465;31;20092;-75
2024/01/26 04:51:38;;;;;;;6.93;1.95;;;;;;;0.93;100.00;99454.72;4499214;31;20108;-75
2024/01/26 04:54:05;;;;;;;5.32;1.70;;;;;;;0.94;100.00;99459.81;4500526;31;20087;-75
2024/01/26 04:56:33;;;;;;;3.78;1.77;;;;;;;0.96;100.00;99458.00;4500197;31;20109;-75
2024/01/26 04:59:02;;;;;;;4.35;1.58;;;;;;;0.94;100.00;99451.22;4500447;31;20575;-75
2024/01/26 05:01:30;;;;;;;5.18;1.77;;;;;;;0.98;100.00;99460.53;4500180;31;20100;-75
2024/01/26 05:03:57;;;;;;;9.93;1.87;;;;;;;1.01;100.00;99468.97;4499919;31;20113;-75
2024/01/26 05:06:24;;;;;;;6.53;1.80;;;;;;;1.05;100.00;99470.56;4500356;31;20138;-75
2024/01/26 05:08:51;;;;;;;7.47;1.60;;;;;;;1.16;100.00;99464.97;4500320;31;20476;-75
2024/01/26 05:11:19;;;;;;;9.63;1.58;;;;;;;1.22;100.00;99469.88;4500147;31;20473;-75
2024/01/26 05:13:46;;;;;;;5.07;1.87;;;;;;;1.26;100.00;99474.94;4500227;31;20447;-75
2024/01/26 05:16:15;;;;;;;4.32;1.58;;;;;;;1.22;100.00;99469.88;4487910;31;20476;-75
2024/01/26 05:18:45;;;;;;;4.53;1.40;;;;;;;1.16;100.00;99477.03;4490835;31;20122;-75
2024/01/26 05:21:12;;;;;;;5.25;1.50;;;;;;;1.17;100.00;99460.66;4487141;31;20176;-75
2024/01/26 05:23:40;;;;;;;11.75;2.03;;;;;;;1.16;100.00;99472.72;4484658;31;20092;-75
2024/01/26 05:26:08;;;;;;;8.25;2.58;;;;;;;1.15;100.00;99465.88;4484302;31;20123;-75
2024/01/26 05:28:36;;;;;;;5.57;2.20;;;;;;;1.16;100.00;99462.38;4484344;31;20462;-75
2024/01/26 05:31:03;;;;;;;3.55;1.73;;;;;;;1.11;100.00;99456.56;4486745;31;20529;-75
2024/01/26 05:33:31;;;;;;;5.87;1.83;;;;;;;1.13;100.00;99462.50;4484211;32;20115;-76
2024/01/26 05:35:59;;;;;;;3.78;1.25;;;;;;;1.20;100.00;99457.97;4484053;31;20160;-75
2024/01/26 05:38:27;;;;;;;7.37;1.98;;;;;;;1.22;100.00;99469.88;4483985;31;20540;-75
2024/01/26 05:40:56;;;;;;;5.55;1.77;;;;;;;1.21;100.00;99475.97;4483927;31;20144;-76
2024/01/26 05:43:23;;;;;;;5.05;1.45;;;;;;;1.28;100.00;99470.56;4484300;31;20084;-76
2024/01/26 05:45:51;;;;;;;8.52;1.75;;;;;;;1.31;100.00;99484.16;4484133;31;20175;-75
2024/01/26 05:48:18;;;;;;;6.20;1.87;;;;;;;1.31;100.00;99481.59;4483885;31;20101;-76
2024/01/26 05:50:48;;;;;;;10.05;1.87;;;;;;;1.30;100.00;99481.66;4483787;31;20185;-75
2024/01/26 05:53:15;;;;;;;14.43;2.15;;;;;;;1.30;100.00;99485.06;4495774;31;20108;-75
2024/01/26 05:55:42;;;;;;;2.95;1.75;;;;;;;1.23;100.00;99481.06;4485181;31;20471;-75
2024/01/26 05:58:10;;;;;;;5.62;1.95;;;;;;;1.24;100.00;99480.16;4490321;31;20214;-75
2024/01/26 06:00:38;;;;;;;4.40;1.70;;;;;;;1.19;100.00;99482.09;4481932;31;20175;-75
2024/01/26 06:03:06;;;;;;;15.27;2.42;;;;;;;1.12;100.00;99484.06;4490019;31;20091;-75
2024/01/26 06:05:33;;;;;;;7.80;2.00;;;;;;;1.07;100.00;99478.22;4485149;31;20216;-75
2024/01/26 06:08:01;;;;;;;10.43;1.83;;;;;;;1.01;100.00;99474.16;4486086;31;20161;-75
2024/01/26 06:10:29;;;;;;;9.18;2.05;;;;;;;1.03;100.00;99486.97;4480065;31;22043;-75
2024/01/26 06:12:56;;;;;;;4.30;1.83;;;;;;;0.97;100.00;99479.47;4486289;31;20486;-75
2024/01/26 06:15:24;;;;;;;8.45;1.90;;;;;;;0.97;100.00;99484.63;4493189;31;20160;-76
2024/01/26 06:17:52;;;;;;;5.93;1.80;;;;;;;1.02;100.00;99482.75;4494599;31;20096;-75
2024/01/26 06:20:19;;;;;;;4.97;1.92;;;;;;;1.05;100.00;99480.03;4491870;31;20104;-75
2024/01/26 06:22:46;;;;;;;6.28;1.90;;;;;;;1.15;100.00;99481.38;4491744;31;20104;-75
2024/01/26 06:25:14;;;;;;;7.72;2.03;;;;;;;1.17;100.00;99478.72;4495457;31;20096;-75
2024/01/26 06:27:42;;;;;;;4.35;2.10;;;;;;;1.20;100.00;99483.78;4490587;31;20511;-75
2024/01/26 06:30:10;;;;;;;4.43;1.80;;;;;;;1.22;100.00;99481.97;4494779;31;20112;-74
2024/01/26 06:32:42;;;;;;;4.68;2.20;;;;;;;1.27;100.00;99481.78;4499603;31;20784;-76
2024/01/26 06:35:10;;;;;;;8.40;1.75;;;;;;;1.24;100.00;99473.25;4488227;31;74666;-75
2024/01/26 06:37:38;;;;;;;7.30;1.67;;;;;;;1.26;100.00;99483.53;4485874;31;20127;-74
2024/01/26 06:40:12;;;;;;;4.28;1.90;;;;;;;1.30;100.00;99468.75;4493824;31;20096;-75
2024/01/26 06:42:41;;;;;;;6.22;1.60;;;;;;;1.32;100.00;99472.97;4487550;31;20123;-74
2024/01/26 06:45:12;;;;;;;6.10;1.90;;;;;;;1.34;100.00;99471.16;4486794;31;20114;-75
2024/01/26 06:47:40;;;;;;;4.25;1.50;;;;;;;1.39;100.00;99476.13;4488114;31;20145;-75
2024/01/26 06:50:07;;;;;;;6.32;2.10;;;;;;;1.43;100.00;99477.69;4488252;31;20115;-75
2024/01/26 06:52:39;;;;;;;11.63;1.92;;;;;;;1.49;100.00;99480.00;4487779;31;20856;-75
2024/01/26 06:55:09;;;;;;;9.07;2.20;;;;;;;1.48;100.00;99470.56;4499098;31;20100;-74
2024/01/26 06:57:39;;;;;;;14.25;1.75;;;;;;;1.53;100.00;99468.66;4493373;31;20156;-74
2024/01/26 07:00:07;;;;;;;8.52;2.22;;;;;;;1.57;100.00;99471.94;4495632;31;20134;-76
2024/01/26 07:02:34;;;;;;;5.10;1.73;;;;;;;1.59;100.00;99465.84;4485991;31;20100;-75
2024/01/26 07:05:02;;;;;;;12.60;2.67;;;;;;;1.65;100.00;99477.66;4486808;31;20119;-78
2024/01/26 07:07:29;;;;;;;8.85;2.05;;;;;;;1.61;100.00;99472.69;4492345;31;20548;-77
2024/01/26 07:09:57;;;;;;;6.37;2.12;;;;;;;1.66;100.00;99479.31;4495299;31;20123;-74
2024/01/26 07:12:24;;;;;;;6.50;2.92;;;;;;;1.69;100.00;99486.12;4490051;31;20100;-78
2024/01/26 07:14:52;;;;;;;6.68;2.25;;;;;;;1.69;100.00;99486.12;4491459;31;20118;-75
2024/01/26 07:17:19;;;;;;;15.00;2.10;;;;;;;1.77;100.00;99491.78;4490055;31;20104;-77
2024/01/26 07:19:46;;;;;;;4.90;1.85;;;;;;;1.81;100.00;99495.94;4493747;31;20119;-76
2024/01/26 07:22:14;;;;;;;5.87;1.80;;;;;;;1.80;100.00;99485.66;4492783;31;20123;-75
2024/01/26 07:24:42;;;;;;;6.10;2.15;;;;;;;1.85;100.00;99500.06;4489132;31;20096;-77
2024/01/26 07:27:11;;;;;;;9.82;2.58;;;;;;;1.85;100.00;99501.84;4499074;31;20096;-75
2024/01/26 07:29:38;;;;;;;6.57;1.95;;;;;;;1.84;100.00;99508.72;4495892;31;20134;-77
2024/01/26 07:32:06;;;;;;;10.80;2.10;;;;;;;1.91;100.00;99507.56;4485083;31;20211;-76
2024/01/26 07:34:35;;;;;;;3.00;1.75;;;;;;;1.92;100.00;99496.34;4486269;31;20104;-77
2024/01/26 07:37:03;;;;;;;9.23;3.20;;;;;;;2.00;100.00;99498.59;4482618;32;20076;-74
2024/01/26 07:39:34;;;;;;;11.18;2.22;;;;;;;2.03;100.00;99500.19;4483654;32;20104;-73
2024/01/26 07:42:01;;;;;;;5.03;1.70;;;;;;;2.03;100.00;99498.47;4480968;32;20152;-74
2024/01/26 07:44:29;;;;;;;5.55;1.87;;;;;;;2.06;100.00;99505.22;4474623;32;20100;-74
2024/01/26 07:46:56;;;;;;;10.05;3.47;;;;;;;2.06;100.00;99498.34;4479804;32;20588;-73
2024/01/26 07:49:24;;;;;;;10.05;3.40;;;;;;;2.14;100.00;99503.19;4480425;32;20143;-74
2024/01/26 07:52:01;;;;;;;9.52;2.60;;;;;;;2.19;100.00;99506.37;4479887;32;20124;-75
2024/01/26 07:54:29;;;;;;;12.18;2.72;;;;;;;2.22;100.00;99505.44;4483305;32;20496;-75
2024/01/26 07:56:56;;;;;;;8.15;2.95;;;;;;;2.27;100.00;99506.06;4483946;32;20114;-75
2024/01/26 07:59:24;;;;;;;6.30;2.03;;;;;;;2.37;100.00;99514.28;4483778;32;20092;-73
2024/01/26 08:01:54;;;;;;;11.95;2.10;;;;;;;2.44;100.00;99521.69;4481494;32;20096;-72
2024/01/26 08:04:21;;;;;;;7.57;2.55;;;;;;;2.45;100.00;99522.53;4475535;32;20111;-73
2024/01/26 08:06:52;;;;;;;12.65;2.33;;;;;;;2.57;100.00;99526.31;4479771;32;21304;-74
2024/01/26 08:09:23;;;;;;;6.43;2.15;;;;;;;2.65;100.00;99532.00;4472318;32;20093;-74
2024/01/26 08:11:52;;;;;;;5.57;2.65;;;;;;;2.74;100.00;99530.75;4478014;32;20093;-73
2024/01/26 08:14:21;;;;;;;7.53;2.60;;;;;;;2.74;100.00;99530.75;4478960;32;20383;-74
2024/01/26 08:16:49;;;;;;;5.30;2.33;;;;;;;2.80;100.00;99543.41;4474699;32;20145;-78
2024/01/26 08:19:18;;;;;;;7.90;2.17;;;;;;;2.87;100.00;99537.03;4477035;32;20398;-74
2024/01/26 08:21:46;;;;;;;6.30;2.30;;;;;;;2.91;100.00;99536.00;4478879;32;20104;-74
2024/01/26 08:24:13;;;;;;;9.32;1.67;;;;;;;3.03;100.00;99526.84;4473710;32;20458;-74
2024/01/26 08:26:41;;;;;;;7.35;2.30;;;;;;;3.12;100.00;99515.19;4478730;32;20088;-74
2024/01/26 08:29:08;;;;;;;9.15;2.78;;;;;;;3.16;100.00;99514.16;4476669;32;20214;-74
2024/01/26 08:31:40;;;;;;;9.45;2.28;;;;;;;3.22;100.00;99506.09;4478340;32;20100;-74
2024/01/26 08:34:07;;;;;;;7.97;2.40;;;;;;;3.32;100.00;99491.00;4477946;32;20179;-75
2024/01/26 08:36:35;;;;;;;3.08;1.75;;;;;;;3.39;100.00;99481.97;4478668;31;20092;-75
2024/01/26 08:39:04;;;;;;;10.90;2.53;;;;;;;3.44;100.00;99481.78;4482285;31;20096;-73
2024/01/26 08:41:34;;;;;;;4.62;1.80;;;;;;;3.48;100.00;99478.97;4477316;32;20097;-74
2024/01/26 08:44:10;;;;;;;12.88;2.47;;;;;;;3.55;100.00;99495.88;4475295;32;20145;-75
2024/01/26 08:46:38;;;;;;;7.65;2.20;;;;;;;3.59;100.00;99501.75;4479552;32;20093;-76
2024/01/26 08:49:08;;;;;;;5.28;2.17;;;;;;;3.53;100.00;99495.12;4476888;32;20127;-76
2024/01/26 08:51:37;;;;;;;7.25;1.92;;;;;;;3.66;100.00;99510.91;4480391;32;20143;-75
2024/01/26 08:54:04;;;;;;;5.00;1.95;;;;;;;3.75;100.00;99516.56;4465477;32;20192;-77
2024/01/26 08:56:31;;;;;;;9.20;1.67;;;;;;;3.88;100.00;99528.00;4475492;32;20127;-75
2024/01/26 08:58:59;;;;;;;4.50;1.87;;;;;;;4.01;100.00;99533.41;4477332;32;20123;-75
2024/01/26 09:01:27;;;;;;;5.85;2.55;;;;;;;4.08;100.00;99543.37;4466014;32;20450;-77
2024/01/26 09:03:55;;;;;;;9.05;2.20;;;;;;;4.16;100.00;99542.16;4474004;32;20107;-77
2024/01/26 09:06:23;;;;;;;6.53;1.70;;;;;;;4.19;100.00;99549.78;4479440;32;20438;-76
2024/01/26 09:08:52;;;;;;;5.62;1.80;;;;;;;4.36;100.00;99544.59;4480836;32;20113;-76
2024/01/26 09:11:19;;;;;;;3.70;1.92;;;;;;;4.28;100.00;99546.72;4481025;32;20566;-74
2024/01/26 09:13:47;;;;;;;9.70;2.05;;;;;;;4.26;100.00;99551.16;4472435;32;20118;-75
2024/01/26 09:16:16;;;;;;;4.62;2.42;;;;;;;4.34;100.00;99551.59;4479094;32;20097;-75
2024/01/26 09:18:45;;;;;;;3.97;1.60;;;;;;;4.41;100.00;99549.56;4479491;32;20088;-74
2024/01/26 09:21:14;;;;;;;4.15;1.75;;;;;;;4.51;100.00;99555.09;4471944;31;20506;-75
2024/01/26 09:23:44;;;;;;;10.52;3.00;;;;;;;4.59;100.00;99560.75;4474229;32;20088;-75
2024/01/26 09:26:13;;;;;;;3.58;1.50;;;;;;;4.67;100.00;99562.94;4478166;32;20777;-75
2024/01/26 09:28:44;;;;;;;7.80;2.10;;;;;;;4.76;100.00;99562.44;4480363;32;20123;-74
2024/01/26 09:31:12;;;;;;;5.45;1.35;;;;;;;4.81;100.00;99565.63;4473989;32;20116;-75
2024/01/26 09:33:39;;;;;;;5.93;1.25;;;;;;;4.82;100.00;99558.69;4478646;32;20163;-75
2024/01/26 09:36:07;;;;;;;5.20;1.70;;;;;;;4.85;100.00;99554.19;4476483;31;20157;-74
2024/01/26 09:38:38;;;;;;;4.85;1.48;;;;;;;4.89;100.00;99549.66;4474273;32;20092;-75
2024/01/26 09:41:05;;;;;;;4.60;1.40;;;;;;;4.97;100.00;99563.06;4477135;32;20092;-73
2024/01/26 09:43:33;;;;;;;7.20;1.80;;;;;;;5.04;100.00;99548.84;4477215;32;20100;-74
2024/01/26 09:46:01;;;;;;;4.60;1.23;;;;;;;5.08;100.00;99558.13;4480071;31;20138;-74
2024/01/26 09:48:29;;;;;;;4.70;1.10;;;;;;;5.10;100.00;99558.91;4461816;32;20178;-74
2024/01/26 09:50:59;;;;;;;2.80;1.23;;;;;;;5.20;100.00;99561.81;4469669;32;20152;-74
2024/01/26 09:53:27;;;;;;;3.12;1.00;;;;;;;5.27;100.00;99557.16;4477588;32;20788;-75
2024/01/26 09:55:58;;;;;;;4.62;1.33;;;;;;;5.36;100.00;99555.78;4476106;32;20111;-76
2024/01/26 09:58:26;;;;;;;4.60;1.37;;;;;;;5.44;100.00;99546.66;4468248;32;20153;-76
2024/01/26 10:00:54;;;;;;;2.42;1.50;;;;;;;5.58;100.00;99551.06;4468454;32;20458;-76
2024/01/26 10:03:23;;;;;;;8.15;1.27;;;;;;;5.74;100.00;99545.88;4477706;32;20168;-76
2024/01/26 10:05:58;;;;;;;6.37;1.87;;;;;;;5.87;100.00;99562.44;4474931;32;20108;-76
2024/01/26 10:08:36;;;;;;;2.90;1.20;;;;;;;5.86;100.00;99546.94;4477762;32;20100;-75
2024/01/26 10:11:08;;;;;;;5.60;1.48;;;;;;;5.77;100.00;99548.28;4474038;32;20084;-76
2024/01/26 10:13:37;;;;;;;5.85;2.15;;;;;;;5.93;100.00;99555.22;4477679;32;20100;-77
2024/01/26 10:16:12;;;;;;;8.73;2.75;;;;;;;5.97;100.00;99549.78;4477622;32;20159;-75
2024/01/26 10:18:47;;;;;;;6.03;1.95;;;;;;;5.91;100.00;99531.88;4480050;32;20437;-74
2024/01/26 10:21:16;;;;;;;9.95;2.50;;;;;;;5.91;100.00;99533.66;4467607;32;20092;-76
2024/01/26 10:23:44;;;;;;;12.80;3.35;;;;;;;5.84;100.00;99526.22;4478771;32;20104;-77
2024/01/26 10:26:14;;;;;;;8.85;2.55;;;;;;;5.74;100.00;99530.25;4478410;32;20105;-76
2024/01/26 10:28:43;;;;;;;12.40;2.45;;;;;;;5.66;100.00;99524.66;4480765;32;20462;-77
2024/01/26 10:31:11;;;;;;;10.60;2.30;;;;;;;5.91;100.00;99525.88;4480419;32;20096;-78
2024/01/26 10:33:46;;;;;;;7.60;2.08;;;;;;;5.84;100.00;99521.03;4476400;32;20129;-77
2024/01/26 10:36:15;;;;;;;9.63;2.90;;;;;;;5.92;100.00;99525.78;4486567;31;20145;-76
2024/01/26 10:38:45;;;;;;;5.32;1.98;;;;;;;5.93;100.00;99524.81;4488196;31;20123;-74
2024/01/26 10:41:19;;;;;;;5.10;2.20;;;;;;;6.01;99.88;99527.00;4490035;31;20157;-75
2024/01/26 10:43:51;;;;;;;5.72;2.22;;;;;;;6.01;100.00;99537.41;4492517;31;20148;-77
2024/01/26 10:46:19;;;;;;;4.60;2.25;;;;;;;6.05;100.00;99523.31;4495299;31;20096;-74
2024/01/26 10:48:47;;;;;;;6.05;2.10;;;;;;;6.18;100.00;99526.88;4492800;31;20093;-73
2024/01/26 10:51:17;;;;;;;4.65;2.50;;;;;;;6.26;100.00;99536.00;4484735;31;20527;-75
2024/01/26 10:53:48;;;;;;;6.15;2.40;;;;;;;6.13;100.00;99526.31;4490706;31;20089;-77
2024/01/26 10:56:16;;;;;;;5.75;2.12;;;;;;;6.10;99.96;99530.84;4488301;31;20117;-77
2024/01/26 10:58:43;;;;;;;8.88;2.33;;;;;;;6.22;100.00;99530.13;4488574;31;20104;-79
2024/01/26 11:01:12;;;;;;;9.70;2.85;;;;;;;6.21;100.00;99526.69;4484320;31;20145;-78
2024/01/26 11:03:39;;;;;;;6.30;2.20;;;;;;;6.31;100.00;99534.78;4491096;31;20517;-80
2024/01/26 11:06:09;;;;;;;6.25;2.45;;;;;;;6.19;98.33;99535.50;4492454;31;20544;-79
2024/01/26 11:08:37;;;;;;;8.98;2.25;;;;;;;6.18;100.00;99520.84;4492240;31;20568;-78
2024/01/26 11:11:04;;;;;;;7.82;2.20;;;;;;;6.19;98.73;99519.91;4488893;31;20104;-77
2024/01/26 11:13:36;;;;;;;3.87;1.80;;;;;;;6.06;99.44;99518.94;4498097;31;20145;-79
2024/01/26 11:16:15;;;;;;;8.52;2.55;;;;;;;6.09;98.96;99527.41;4493102;31;20111;-79
2024/01/26 11:18:56;;;;;;;8.90;2.55;;;;;;;6.11;100.00;99514.31;4489331;31;20095;-78
2024/01/26 11:21:24;;;;;;;9.65;2.28;;;;;;;6.20;98.79;99501.59;4492195;31;20088;-77
2024/01/26 11:23:51;;;;;;;9.38;2.45;;;;;;;6.38;97.57;99517.06;4491673;31;20495;-78
2024/01/26 11:26:19;;;;;;;5.75;2.30;;;;;;;6.25;97.62;99508.28;4494934;31;20122;-77
2024/01/26 11:28:48;;;;;;;8.18;2.35;;;;;;;6.28;99.18;99495.09;4488493;31;20104;-78
2024/01/26 11:31:28;;;;;;;8.57;2.65;;;;;;;6.34;98.14;99499.94;4489231;31;20122;-78
2024/01/26 11:33:57;;;;;;;10.35;2.55;;;;;;;6.28;96.58;99488.13;4492810;31;20080;-76
2024/01/26 11:36:31;;;;;;;6.18;2.15;;;;;;;6.32;97.99;99491.41;4491288;31;20089;-76
2024/01/26 11:38:59;;;;;;;;;;;;;;;6.52;97.38;99484.97;4489319;31;20168;-77
2024/01/26 11:41:28;;;;;;;1.83;1.08;;;;;;;6.53;96.29;99487.50;4489885;31;19995;-77